sensor_id;sensor_type;location;lat;lon;timestamp;P1;durP1;ratioP1;P2;durP2;ratioP2
48361;SDS011;34510;51.888;5.670;2022-08-19T00:03:58;12.82;;;8.07;;
48361;SDS011;34510;51.888;5.670;2022-08-19T00:09:02;11.13;;;8.23;;
48361;SDS011;34510;51.888;5.670;2022-08-19T00:14:05;12.02;;;7.85;;
48361;SDS011;34510;51.888;5.670;2022-08-19T00:19:09;12.13;;;8.30;;
48361;SDS011;34510;51.888;5.670;2022-08-19T00:24:13;11.85;;;7.93;;
48361;SDS011;34510;51.888;5.670;2022-08-19T00:29:16;11.15;;;8.55;;
48361;SDS011;34510;51.888;5.670;2022-08-19T00:34:20;10.02;;;8.80;;
48361;SDS011;34510;51.888;5.670;2022-08-19T00:39:23;10.32;;;7.63;;
48361;SDS011;34510;51.888;5.670;2022-08-19T00:44:27;14.10;;;8.13;;
48361;SDS011;34510;51.888;5.670;2022-08-19T00:50:03;10.70;;;8.07;;
48361;SDS011;34510;51.888;5.670;2022-08-19T00:54:59;11.25;;;8.80;;
48361;SDS011;34510;51.888;5.670;2022-08-19T01:00:03;10.40;;;7.38;;
48361;SDS011;34510;51.888;5.670;2022-08-19T01:05:14;9.40;;;7.72;;
48361;SDS011;34510;51.888;5.670;2022-08-19T01:10:23;10.57;;;8.32;;
48361;SDS011;34510;51.888;5.670;2022-08-19T01:15:32;10.15;;;8.85;;
48361;SDS011;34510;51.888;5.670;2022-08-19T01:20:35;12.93;;;8.13;;
48361;SDS011;34510;51.888;5.670;2022-08-19T01:25:40;10.43;;;7.75;;
48361;SDS011;34510;51.888;5.670;2022-08-19T01:30:46;11.02;;;7.53;;
48361;SDS011;34510;51.888;5.670;2022-08-19T01:35:51;9.25;;;8.00;;
48361;SDS011;34510;51.888;5.670;2022-08-19T01:40:53;10.18;;;7.95;;
48361;SDS011;34510;51.888;5.670;2022-08-19T01:45:55;15.45;;;12.00;;
48361;SDS011;34510;51.888;5.670;2022-08-19T01:50:57;16.42;;;11.00;;
48361;SDS011;34510;51.888;5.670;2022-08-19T01:55:59;15.10;;;11.90;;
48361;SDS011;34510;51.888;5.670;2022-08-19T02:01:02;16.17;;;11.98;;
48361;SDS011;34510;51.888;5.670;2022-08-19T02:06:05;13.68;;;11.85;;
48361;SDS011;34510;51.888;5.670;2022-08-19T02:11:07;17.73;;;11.82;;
48361;SDS011;34510;51.888;5.670;2022-08-19T02:16:09;13.43;;;10.98;;
48361;SDS011;34510;51.888;5.670;2022-08-19T02:21:11;16.33;;;12.65;;
48361;SDS011;34510;51.888;5.670;2022-08-19T02:26:13;16.00;;;13.23;;
48361;SDS011;34510;51.888;5.670;2022-08-19T02:31:17;14.40;;;12.30;;
48361;SDS011;34510;51.888;5.670;2022-08-19T02:36:20;17.77;;;13.10;;
48361;SDS011;34510;51.888;5.670;2022-08-19T02:41:27;16.67;;;12.90;;
48361;SDS011;34510;51.888;5.670;2022-08-19T02:46:33;16.23;;;13.13;;
48361;SDS011;34510;51.888;5.670;2022-08-19T02:51:36;15.40;;;12.77;;
48361;SDS011;34510;51.888;5.670;2022-08-19T02:56:40;14.57;;;12.25;;
48361;SDS011;34510;51.888;5.670;2022-08-19T03:01:43;20.23;;;13.90;;
48361;SDS011;34510;51.888;5.670;2022-08-19T03:06:45;21.02;;;14.75;;
48361;SDS011;34510;51.888;5.670;2022-08-19T03:11:48;18.20;;;13.38;;
48361;SDS011;34510;51.888;5.670;2022-08-19T03:16:53;26.70;;;16.98;;
48361;SDS011;34510;51.888;5.670;2022-08-19T03:21:55;22.98;;;15.40;;
48361;SDS011;34510;51.888;5.670;2022-08-19T03:26:57;22.92;;;16.15;;
48361;SDS011;34510;51.888;5.670;2022-08-19T03:32:00;14.57;;;12.93;;
48361;SDS011;34510;51.888;5.670;2022-08-19T03:37:06;18.92;;;14.07;;
48361;SDS011;34510;51.888;5.670;2022-08-19T03:42:11;21.33;;;15.25;;
48361;SDS011;34510;51.888;5.670;2022-08-19T03:47:32;17.92;;;14.27;;
48361;SDS011;34510;51.888;5.670;2022-08-19T03:52:34;22.38;;;16.35;;
48361;SDS011;34510;51.888;5.670;2022-08-19T03:57:37;20.42;;;14.35;;
48361;SDS011;34510;51.888;5.670;2022-08-19T04:02:38;21.60;;;14.93;;
48361;SDS011;34510;51.888;5.670;2022-08-19T04:07:40;20.98;;;15.13;;
48361;SDS011;34510;51.888;5.670;2022-08-19T04:12:43;20.05;;;16.38;;
48361;SDS011;34510;51.888;5.670;2022-08-19T04:17:44;17.02;;;13.90;;
48361;SDS011;34510;51.888;5.670;2022-08-19T04:22:47;16.67;;;13.75;;
48361;SDS011;34510;51.888;5.670;2022-08-19T04:27:49;16.63;;;12.88;;
48361;SDS011;34510;51.888;5.670;2022-08-19T04:32:51;22.73;;;14.65;;
48361;SDS011;34510;51.888;5.670;2022-08-19T04:37:53;61.08;;;16.35;;
48361;SDS011;34510;51.888;5.670;2022-08-19T04:42:55;117.90;;;17.50;;
48361;SDS011;34510;51.888;5.670;2022-08-19T04:47:57;100.85;;;17.60;;
48361;SDS011;34510;51.888;5.670;2022-08-19T04:53:19;56.78;;;17.23;;
48361;SDS011;34510;51.888;5.670;2022-08-19T04:58:22;106.82;;;18.17;;
48361;SDS011;34510;51.888;5.670;2022-08-19T05:03:25;109.93;;;16.77;;
48361;SDS011;34510;51.888;5.670;2022-08-19T05:08:32;214.45;;;19.30;;
48361;SDS011;34510;51.888;5.670;2022-08-19T05:13:35;75.78;;;15.60;;
48361;SDS011;34510;51.888;5.670;2022-08-19T05:18:36;125.32;;;16.10;;
48361;SDS011;34510;51.888;5.670;2022-08-19T05:23:57;178.20;;;17.13;;
48361;SDS011;34510;51.888;5.670;2022-08-19T05:28:59;178.52;;;18.05;;
48361;SDS011;34510;51.888;5.670;2022-08-19T05:34:01;120.68;;;17.52;;
48361;SDS011;34510;51.888;5.670;2022-08-19T05:39:19;43.30;;;17.52;;
48361;SDS011;34510;51.888;5.670;2022-08-19T05:44:21;81.20;;;20.52;;
48361;SDS011;34510;51.888;5.670;2022-08-19T05:49:24;32.03;;;19.33;;
48361;SDS011;34510;51.888;5.670;2022-08-19T05:54:26;37.03;;;19.90;;
48361;SDS011;34510;51.888;5.670;2022-08-19T05:59:28;46.25;;;22.92;;
48361;SDS011;34510;51.888;5.670;2022-08-19T06:04:32;39.45;;;24.05;;
48361;SDS011;34510;51.888;5.670;2022-08-19T06:09:34;51.72;;;29.98;;
48361;SDS011;34510;51.888;5.670;2022-08-19T06:14:36;53.95;;;30.75;;
48361;SDS011;34510;51.888;5.670;2022-08-19T06:19:42;49.00;;;29.55;;
48361;SDS011;34510;51.888;5.670;2022-08-19T06:24:44;58.53;;;31.10;;
48361;SDS011;34510;51.888;5.670;2022-08-19T06:29:46;58.83;;;31.02;;
48361;SDS011;34510;51.888;5.670;2022-08-19T06:34:48;54.13;;;29.98;;
48361;SDS011;34510;51.888;5.670;2022-08-19T06:39:51;57.00;;;31.08;;
48361;SDS011;34510;51.888;5.670;2022-08-19T06:44:53;59.47;;;32.85;;
48361;SDS011;34510;51.888;5.670;2022-08-19T06:49:55;66.78;;;34.00;;
48361;SDS011;34510;51.888;5.670;2022-08-19T06:55:06;76.03;;;37.83;;
48361;SDS011;34510;51.888;5.670;2022-08-19T07:00:08;66.75;;;36.38;;
48361;SDS011;34510;51.888;5.670;2022-08-19T07:05:15;75.78;;;38.00;;
48361;SDS011;34510;51.888;5.670;2022-08-19T07:10:20;80.32;;;41.47;;
48361;SDS011;34510;51.888;5.670;2022-08-19T07:15:22;82.13;;;41.28;;
48361;SDS011;34510;51.888;5.670;2022-08-19T07:20:24;87.90;;;42.97;;
48361;SDS011;34510;51.888;5.670;2022-08-19T07:25:28;91.32;;;42.85;;
48361;SDS011;34510;51.888;5.670;2022-08-19T07:30:36;84.45;;;42.08;;
48361;SDS011;34510;51.888;5.670;2022-08-19T07:35:39;84.53;;;40.70;;
48361;SDS011;34510;51.888;5.670;2022-08-19T07:40:41;76.13;;;40.78;;
48361;SDS011;34510;51.888;5.670;2022-08-19T07:45:44;73.50;;;40.45;;
48361;SDS011;34510;51.888;5.670;2022-08-19T07:50:48;75.18;;;38.55;;
48361;SDS011;34510;51.888;5.670;2022-08-19T07:55:50;67.10;;;36.55;;
48361;SDS011;34510;51.888;5.670;2022-08-19T08:00:52;67.72;;;36.50;;
48361;SDS011;34510;51.888;5.670;2022-08-19T08:05:54;65.18;;;34.60;;
48361;SDS011;34510;51.888;5.670;2022-08-19T08:11:16;89.90;;;37.20;;
48361;SDS011;34510;51.888;5.670;2022-08-19T08:16:21;66.35;;;34.95;;
48361;SDS011;34510;51.888;5.670;2022-08-19T08:21:22;63.80;;;34.90;;
48361;SDS011;34510;51.888;5.670;2022-08-19T08:26:24;56.40;;;32.03;;
48361;SDS011;34510;51.888;5.670;2022-08-19T08:31:28;54.22;;;28.40;;
48361;SDS011;34510;51.888;5.670;2022-08-19T08:36:42;52.47;;;29.52;;
48361;SDS011;34510;51.888;5.670;2022-08-19T08:41:52;53.35;;;30.00;;
48361;SDS011;34510;51.888;5.670;2022-08-19T08:47:21;54.95;;;31.25;;
48361;SDS011;34510;51.888;5.670;2022-08-19T08:52:34;67.30;;;30.65;;
48361;SDS011;34510;51.888;5.670;2022-08-19T08:57:52;52.97;;;30.50;;
48361;SDS011;34510;51.888;5.670;2022-08-19T09:03:06;50.83;;;27.00;;
48361;SDS011;34510;51.888;5.670;2022-08-19T09:08:30;54.13;;;29.13;;
48361;SDS011;34510;51.888;5.670;2022-08-19T09:13:41;48.92;;;26.35;;
48361;SDS011;34510;51.888;5.670;2022-08-19T09:18:51;47.83;;;25.55;;
48361;SDS011;34510;51.888;5.670;2022-08-19T09:23:55;42.22;;;23.42;;
48361;SDS011;34510;51.888;5.670;2022-08-19T09:28:58;50.83;;;24.23;;
48361;SDS011;34510;51.888;5.670;2022-08-19T09:34:00;40.15;;;22.30;;
48361;SDS011;34510;51.888;5.670;2022-08-19T09:39:06;40.30;;;22.90;;
48361;SDS011;34510;51.888;5.670;2022-08-19T09:44:18;52.35;;;22.95;;
48361;SDS011;34510;51.888;5.670;2022-08-19T09:49:22;35.67;;;20.90;;
48361;SDS011;34510;51.888;5.670;2022-08-19T09:54:28;37.17;;;20.55;;
48361;SDS011;34510;51.888;5.670;2022-08-19T09:59:38;36.42;;;21.30;;
48361;SDS011;34510;51.888;5.670;2022-08-19T10:05:01;38.47;;;20.67;;
48361;SDS011;34510;51.888;5.670;2022-08-19T10:15:30;33.60;;;19.02;;
48361;SDS011;34510;51.888;5.670;2022-08-19T10:20:50;37.63;;;19.40;;
48361;SDS011;34510;51.888;5.670;2022-08-19T10:25:58;35.20;;;20.88;;
48361;SDS011;34510;51.888;5.670;2022-08-19T10:31:11;33.95;;;20.42;;
48361;SDS011;34510;51.888;5.670;2022-08-19T10:36:54;43.60;;;21.83;;
48361;SDS011;34510;51.888;5.670;2022-08-19T10:42:05;36.97;;;20.63;;
48361;SDS011;34510;51.888;5.670;2022-08-19T10:47:25;34.08;;;20.83;;
48361;SDS011;34510;51.888;5.670;2022-08-19T10:52:34;29.35;;;19.08;;
48361;SDS011;34510;51.888;5.670;2022-08-19T10:57:39;29.63;;;18.83;;
48361;SDS011;34510;51.888;5.670;2022-08-19T11:03:02;27.20;;;18.55;;
48361;SDS011;34510;51.888;5.670;2022-08-19T11:08:10;32.35;;;19.88;;
48361;SDS011;34510;51.888;5.670;2022-08-19T11:13:24;32.00;;;21.45;;
48361;SDS011;34510;51.888;5.670;2022-08-19T11:18:32;35.60;;;20.95;;
48361;SDS011;34510;51.888;5.670;2022-08-19T11:23:38;30.52;;;20.05;;
48361;SDS011;34510;51.888;5.670;2022-08-19T11:28:43;43.28;;;23.15;;
48361;SDS011;34510;51.888;5.670;2022-08-19T11:33:47;33.13;;;22.02;;
48361;SDS011;34510;51.888;5.670;2022-08-19T11:38:54;42.25;;;24.48;;
48361;SDS011;34510;51.888;5.670;2022-08-19T11:43:58;34.58;;;24.63;;
48361;SDS011;34510;51.888;5.670;2022-08-19T11:49:00;35.92;;;24.80;;
48361;SDS011;34510;51.888;5.670;2022-08-19T11:54:05;43.05;;;25.70;;
48361;SDS011;34510;51.888;5.670;2022-08-19T11:59:07;37.83;;;24.50;;
48361;SDS011;34510;51.888;5.670;2022-08-19T12:04:15;39.72;;;22.60;;
48361;SDS011;34510;51.888;5.670;2022-08-19T12:09:18;38.83;;;23.60;;
48361;SDS011;34510;51.888;5.670;2022-08-19T12:14:20;42.95;;;25.58;;
48361;SDS011;34510;51.888;5.670;2022-08-19T12:19:22;35.80;;;23.80;;
48361;SDS011;34510;51.888;5.670;2022-08-19T12:24:26;43.65;;;24.75;;
48361;SDS011;34510;51.888;5.670;2022-08-19T12:29:28;34.47;;;23.25;;
48361;SDS011;34510;51.888;5.670;2022-08-19T12:34:31;41.28;;;23.02;;
48361;SDS011;34510;51.888;5.670;2022-08-19T12:39:34;30.65;;;22.92;;
48361;SDS011;34510;51.888;5.670;2022-08-19T12:44:39;30.70;;;21.50;;
48361;SDS011;34510;51.888;5.670;2022-08-19T12:49:43;35.58;;;24.40;;
48361;SDS011;34510;51.888;5.670;2022-08-19T12:54:56;35.47;;;22.58;;
48361;SDS011;34510;51.888;5.670;2022-08-19T13:00:03;32.88;;;21.60;;
48361;SDS011;34510;51.888;5.670;2022-08-19T13:05:09;34.72;;;22.02;;
48361;SDS011;34510;51.888;5.670;2022-08-19T13:10:24;31.75;;;23.23;;
48361;SDS011;34510;51.888;5.670;2022-08-19T13:15:34;35.55;;;22.02;;
48361;SDS011;34510;51.888;5.670;2022-08-19T13:20:40;34.75;;;23.45;;
48361;SDS011;34510;51.888;5.670;2022-08-19T13:25:42;31.10;;;21.95;;
48361;SDS011;34510;51.888;5.670;2022-08-19T13:30:48;34.63;;;22.77;;
48361;SDS011;34510;51.888;5.670;2022-08-19T13:36:08;31.60;;;20.30;;
48361;SDS011;34510;51.888;5.670;2022-08-19T13:41:11;38.30;;;22.10;;
48361;SDS011;34510;51.888;5.670;2022-08-19T13:46:15;32.65;;;19.05;;
48361;SDS011;34510;51.888;5.670;2022-08-19T13:51:17;34.60;;;22.05;;
48361;SDS011;34510;51.888;5.670;2022-08-19T13:56:19;32.65;;;21.17;;
48361;SDS011;34510;51.888;5.670;2022-08-19T14:01:26;30.55;;;20.58;;
48361;SDS011;34510;51.888;5.670;2022-08-19T14:06:29;26.40;;;14.23;;
48361;SDS011;34510;51.888;5.670;2022-08-19T14:11:30;24.50;;;13.68;;
48361;SDS011;34510;51.888;5.670;2022-08-19T14:16:32;14.90;;;9.73;;
48361;SDS011;34510;51.888;5.670;2022-08-19T14:21:35;17.20;;;9.25;;
48361;SDS011;34510;51.888;5.670;2022-08-19T14:26:41;12.50;;;8.98;;
48361;SDS011;34510;51.888;5.670;2022-08-19T14:31:43;24.33;;;15.65;;
48361;SDS011;34510;51.888;5.670;2022-08-19T14:36:45;25.08;;;16.35;;
48361;SDS011;34510;51.888;5.670;2022-08-19T14:41:50;16.98;;;13.27;;
48361;SDS011;34510;51.888;5.670;2022-08-19T14:46:52;16.73;;;11.45;;
48361;SDS011;34510;51.888;5.670;2022-08-19T14:51:54;15.23;;;10.02;;
48361;SDS011;34510;51.888;5.670;2022-08-19T14:56:57;13.88;;;9.23;;
48361;SDS011;34510;51.888;5.670;2022-08-19T15:01:59;7.57;;;4.05;;
48361;SDS011;34510;51.888;5.670;2022-08-19T15:07:21;3.92;;;3.08;;
48361;SDS011;34510;51.888;5.670;2022-08-19T15:12:26;4.90;;;2.95;;
48361;SDS011;34510;51.888;5.670;2022-08-19T15:17:27;10.70;;;4.20;;
48361;SDS011;34510;51.888;5.670;2022-08-19T15:22:46;10.75;;;4.25;;
48361;SDS011;34510;51.888;5.670;2022-08-19T15:27:49;7.13;;;3.13;;
48361;SDS011;34510;51.888;5.670;2022-08-19T15:32:51;3.33;;;2.70;;
48361;SDS011;34510;51.888;5.670;2022-08-19T15:37:56;5.47;;;3.10;;
48361;SDS011;34510;51.888;5.670;2022-08-19T15:42:59;4.68;;;2.53;;
48361;SDS011;34510;51.888;5.670;2022-08-19T15:48:01;3.88;;;2.72;;
48361;SDS011;34510;51.888;5.670;2022-08-19T15:53:06;5.18;;;2.92;;
48361;SDS011;34510;51.888;5.670;2022-08-19T15:58:10;7.13;;;2.75;;
48361;SDS011;34510;51.888;5.670;2022-08-19T16:03:33;3.88;;;3.03;;
48361;SDS011;34510;51.888;5.670;2022-08-19T16:08:59;5.95;;;2.80;;
48361;SDS011;34510;51.888;5.670;2022-08-19T16:14:02;4.13;;;3.72;;
48361;SDS011;34510;51.888;5.670;2022-08-19T16:19:09;3.08;;;2.83;;
48361;SDS011;34510;51.888;5.670;2022-08-19T16:24:13;3.72;;;3.35;;
48361;SDS011;34510;51.888;5.670;2022-08-19T16:29:17;4.90;;;3.83;;
48361;SDS011;34510;51.888;5.670;2022-08-19T16:34:34;6.82;;;4.80;;
48361;SDS011;34510;51.888;5.670;2022-08-19T16:39:37;7.78;;;5.10;;
48361;SDS011;34510;51.888;5.670;2022-08-19T16:44:40;6.50;;;5.40;;
48361;SDS011;34510;51.888;5.670;2022-08-19T16:49:43;7.43;;;5.35;;
48361;SDS011;34510;51.888;5.670;2022-08-19T16:54:55;7.65;;;6.25;;
48361;SDS011;34510;51.888;5.670;2022-08-19T16:59:57;6.88;;;5.72;;
48361;SDS011;34510;51.888;5.670;2022-08-19T17:04:59;9.73;;;5.28;;
48361;SDS011;34510;51.888;5.670;2022-08-19T17:10:02;6.78;;;5.13;;
48361;SDS011;34510;51.888;5.670;2022-08-19T17:15:05;9.00;;;6.57;;
48361;SDS011;34510;51.888;5.670;2022-08-19T17:20:08;8.98;;;7.57;;
48361;SDS011;34510;51.888;5.670;2022-08-19T17:25:11;13.38;;;6.78;;
48361;SDS011;34510;51.888;5.670;2022-08-19T17:30:13;8.55;;;6.63;;
48361;SDS011;34510;51.888;5.670;2022-08-19T17:35:14;9.32;;;6.03;;
48361;SDS011;34510;51.888;5.670;2022-08-19T17:40:24;8.00;;;5.80;;
48361;SDS011;34510;51.888;5.670;2022-08-19T17:45:30;7.28;;;5.70;;
48361;SDS011;34510;51.888;5.670;2022-08-19T17:50:32;7.75;;;6.07;;
48361;SDS011;34510;51.888;5.670;2022-08-19T17:55:35;9.10;;;5.68;;
48361;SDS011;34510;51.888;5.670;2022-08-19T18:00:38;9.25;;;6.18;;
48361;SDS011;34510;51.888;5.670;2022-08-19T18:05:54;10.60;;;7.05;;
48361;SDS011;34510;51.888;5.670;2022-08-19T18:10:58;13.57;;;8.93;;
48361;SDS011;34510;51.888;5.670;2022-08-19T18:16:01;14.70;;;8.63;;
48361;SDS011;34510;51.888;5.670;2022-08-19T18:21:05;19.02;;;9.02;;
48361;SDS011;34510;51.888;5.670;2022-08-19T18:26:06;16.98;;;10.68;;
48361;SDS011;34510;51.888;5.670;2022-08-19T18:31:08;19.20;;;11.07;;
48361;SDS011;34510;51.888;5.670;2022-08-19T18:36:10;18.13;;;11.40;;
48361;SDS011;34510;51.888;5.670;2022-08-19T18:41:12;19.85;;;11.23;;
48361;SDS011;34510;51.888;5.670;2022-08-19T18:46:33;13.80;;;9.07;;
48361;SDS011;34510;51.888;5.670;2022-08-19T18:51:58;12.68;;;8.10;;
48361;SDS011;34510;51.888;5.670;2022-08-19T18:57:01;12.95;;;7.63;;
48361;SDS011;34510;51.888;5.670;2022-08-19T19:02:06;13.82;;;7.65;;
48361;SDS011;34510;51.888;5.670;2022-08-19T19:07:07;15.85;;;8.68;;
48361;SDS011;34510;51.888;5.670;2022-08-19T19:12:12;18.35;;;7.28;;
48361;SDS011;34510;51.888;5.670;2022-08-19T19:17:14;15.32;;;7.03;;
48361;SDS011;34510;51.888;5.670;2022-08-19T19:22:18;11.23;;;6.50;;
48361;SDS011;34510;51.888;5.670;2022-08-19T19:27:21;12.68;;;6.72;;
48361;SDS011;34510;51.888;5.670;2022-08-19T19:32:25;9.43;;;6.68;;
48361;SDS011;34510;51.888;5.670;2022-08-19T19:37:29;8.00;;;6.18;;
48361;SDS011;34510;51.888;5.670;2022-08-19T19:42:31;10.85;;;7.03;;
48361;SDS011;34510;51.888;5.670;2022-08-19T19:47:33;10.77;;;7.15;;
48361;SDS011;34510;51.888;5.670;2022-08-19T19:52:35;11.18;;;6.53;;
48361;SDS011;34510;51.888;5.670;2022-08-19T19:57:38;14.45;;;6.22;;
48361;SDS011;34510;51.888;5.670;2022-08-19T20:02:40;8.60;;;5.78;;
48361;SDS011;34510;51.888;5.670;2022-08-19T20:07:50;15.70;;;6.45;;
48361;SDS011;34510;51.888;5.670;2022-08-19T20:13:12;18.30;;;6.50;;
48361;SDS011;34510;51.888;5.670;2022-08-19T20:18:17;10.77;;;6.05;;
48361;SDS011;34510;51.888;5.670;2022-08-19T20:23:19;12.02;;;6.65;;
48361;SDS011;34510;51.888;5.670;2022-08-19T20:28:23;12.80;;;7.15;;
48361;SDS011;34510;51.888;5.670;2022-08-19T20:33:26;12.10;;;6.00;;
48361;SDS011;34510;51.888;5.670;2022-08-19T20:38:28;13.15;;;6.13;;
48361;SDS011;34510;51.888;5.670;2022-08-19T20:43:30;9.30;;;6.72;;
48361;SDS011;34510;51.888;5.670;2022-08-19T20:48:32;11.00;;;7.00;;
48361;SDS011;34510;51.888;5.670;2022-08-19T20:53:36;10.93;;;7.72;;
48361;SDS011;34510;51.888;5.670;2022-08-19T20:58:39;8.82;;;6.82;;
48361;SDS011;34510;51.888;5.670;2022-08-19T21:03:41;10.50;;;6.68;;
48361;SDS011;34510;51.888;5.670;2022-08-19T21:08:44;11.00;;;6.97;;
48361;SDS011;34510;51.888;5.670;2022-08-19T21:13:49;15.23;;;8.68;;
48361;SDS011;34510;51.888;5.670;2022-08-19T21:18:51;18.98;;;7.72;;
48361;SDS011;34510;51.888;5.670;2022-08-19T21:23:53;11.57;;;6.93;;
48361;SDS011;34510;51.888;5.670;2022-08-19T21:28:54;12.00;;;7.65;;
48361;SDS011;34510;51.888;5.670;2022-08-19T21:33:56;11.13;;;7.13;;
48361;SDS011;34510;51.888;5.670;2022-08-19T21:38:58;14.45;;;7.88;;
48361;SDS011;34510;51.888;5.670;2022-08-19T21:44:00;11.63;;;7.32;;
48361;SDS011;34510;51.888;5.670;2022-08-19T21:49:01;10.57;;;8.13;;
48361;SDS011;34510;51.888;5.670;2022-08-19T21:54:03;13.50;;;7.32;;
48361;SDS011;34510;51.888;5.670;2022-08-19T21:59:07;15.93;;;7.60;;
48361;SDS011;34510;51.888;5.670;2022-08-19T22:04:09;13.52;;;8.32;;
48361;SDS011;34510;51.888;5.670;2022-08-19T22:09:11;13.35;;;8.55;;
48361;SDS011;34510;51.888;5.670;2022-08-19T22:14:13;13.45;;;7.85;;
48361;SDS011;34510;51.888;5.670;2022-08-19T22:19:15;15.63;;;7.72;;
48361;SDS011;34510;51.888;5.670;2022-08-19T22:24:17;13.00;;;8.30;;
48361;SDS011;34510;51.888;5.670;2022-08-19T22:29:19;10.25;;;7.90;;
48361;SDS011;34510;51.888;5.670;2022-08-19T22:34:34;18.60;;;10.07;;
48361;SDS011;34510;51.888;5.670;2022-08-19T22:39:36;14.18;;;9.00;;
48361;SDS011;34510;51.888;5.670;2022-08-19T22:44:38;13.40;;;8.65;;
48361;SDS011;34510;51.888;5.670;2022-08-19T22:49:40;15.02;;;10.13;;
48361;SDS011;34510;51.888;5.670;2022-08-19T22:54:49;12.38;;;9.35;;
48361;SDS011;34510;51.888;5.670;2022-08-19T22:59:53;11.35;;;8.32;;
48361;SDS011;34510;51.888;5.670;2022-08-19T23:05:02;12.48;;;9.18;;
48361;SDS011;34510;51.888;5.670;2022-08-19T23:10:08;30.55;;;13.10;;
48361;SDS011;34510;51.888;5.670;2022-08-19T23:15:21;12.15;;;8.68;;
48361;SDS011;34510;51.888;5.670;2022-08-19T23:20:26;14.15;;;9.23;;
48361;SDS011;34510;51.888;5.670;2022-08-19T23:25:31;16.80;;;9.70;;
48361;SDS011;34510;51.888;5.670;2022-08-19T23:30:46;13.95;;;8.70;;
48361;SDS011;34510;51.888;5.670;2022-08-19T23:35:53;14.85;;;9.70;;
48361;SDS011;34510;51.888;5.670;2022-08-19T23:40:57;16.33;;;10.05;;
48361;SDS011;34510;51.888;5.670;2022-08-19T23:46:02;17.33;;;9.95;;
48361;SDS011;34510;51.888;5.670;2022-08-19T23:51:12;15.25;;;9.90;;
48361;SDS011;34510;51.888;5.670;2022-08-19T23:56:15;20.95;;;11.20;;
